sensor_id;sensor_type;location;lat;lon;timestamp;P1;durP1;ratioP1;P2;durP2;ratioP2
38132;SDS011;23948;43.252;26.572;2022-10-31T00:00:29;15.23;;;8.10;;
38132;SDS011;23948;43.252;26.572;2022-10-31T00:02:55;16.27;;;7.60;;
38132;SDS011;23948;43.252;26.572;2022-10-31T00:05:21;16.45;;;7.95;;
38132;SDS011;23948;43.252;26.572;2022-10-31T00:07:46;15.00;;;7.35;;
38132;SDS011;23948;43.252;26.572;2022-10-31T00:10:11;12.75;;;7.10;;
38132;SDS011;23948;43.252;26.572;2022-10-31T00:12:37;13.48;;;6.75;;
38132;SDS011;23948;43.252;26.572;2022-10-31T00:15:02;14.32;;;7.10;;
38132;SDS011;23948;43.252;26.572;2022-10-31T00:17:28;15.82;;;6.32;;
38132;SDS011;23948;43.252;26.572;2022-10-31T00:19:53;12.55;;;5.80;;
38132;SDS011;23948;43.252;26.572;2022-10-31T00:22:19;12.77;;;6.50;;
38132;SDS011;23948;43.252;26.572;2022-10-31T00:24:44;12.18;;;6.05;;
38132;SDS011;23948;43.252;26.572;2022-10-31T00:27:09;13.02;;;6.10;;
38132;SDS011;23948;43.252;26.572;2022-10-31T00:29:35;11.27;;;5.88;;
38132;SDS011;23948;43.252;26.572;2022-10-31T00:32:00;13.07;;;5.90;;
38132;SDS011;23948;43.252;26.572;2022-10-31T00:34:26;12.98;;;6.28;;
38132;SDS011;23948;43.252;26.572;2022-10-31T00:36:51;11.70;;;5.72;;
38132;SDS011;23948;43.252;26.572;2022-10-31T00:39:17;10.85;;;5.55;;
38132;SDS011;23948;43.252;26.572;2022-10-31T00:41:42;13.45;;;6.28;;
38132;SDS011;23948;43.252;26.572;2022-10-31T00:44:07;12.93;;;5.95;;
38132;SDS011;23948;43.252;26.572;2022-10-31T00:46:33;12.98;;;5.88;;
38132;SDS011;23948;43.252;26.572;2022-10-31T00:48:58;10.93;;;6.50;;
38132;SDS011;23948;43.252;26.572;2022-10-31T00:51:24;11.70;;;5.70;;
38132;SDS011;23948;43.252;26.572;2022-10-31T00:53:49;10.32;;;5.43;;
38132;SDS011;23948;43.252;26.572;2022-10-31T00:56:15;11.85;;;5.47;;
38132;SDS011;23948;43.252;26.572;2022-10-31T00:58:40;10.02;;;5.30;;
38132;SDS011;23948;43.252;26.572;2022-10-31T01:01:05;10.00;;;5.40;;
38132;SDS011;23948;43.252;26.572;2022-10-31T01:03:32;9.63;;;4.88;;
38132;SDS011;23948;43.252;26.572;2022-10-31T01:08:28;9.95;;;5.00;;
38132;SDS011;23948;43.252;26.572;2022-10-31T01:10:58;9.10;;;4.93;;
38132;SDS011;23948;43.252;26.572;2022-10-31T01:13:24;8.90;;;4.65;;
38132;SDS011;23948;43.252;26.572;2022-10-31T01:15:56;8.23;;;4.90;;
38132;SDS011;23948;43.252;26.572;2022-10-31T01:18:22;11.68;;;5.18;;
38132;SDS011;23948;43.252;26.572;2022-10-31T01:20:56;12.35;;;5.22;;
38132;SDS011;23948;43.252;26.572;2022-10-31T01:23:22;10.00;;;5.40;;
38132;SDS011;23948;43.252;26.572;2022-10-31T01:25:48;9.88;;;5.45;;
38132;SDS011;23948;43.252;26.572;2022-10-31T01:28:13;9.77;;;5.68;;
38132;SDS011;23948;43.252;26.572;2022-10-31T01:30:39;11.85;;;5.97;;
38132;SDS011;23948;43.252;26.572;2022-10-31T01:33:04;14.23;;;6.47;;
38132;SDS011;23948;43.252;26.572;2022-10-31T01:35:30;13.20;;;6.22;;
38132;SDS011;23948;43.252;26.572;2022-10-31T01:37:55;13.45;;;5.95;;
38132;SDS011;23948;43.252;26.572;2022-10-31T01:40:20;10.30;;;5.75;;
38132;SDS011;23948;43.252;26.572;2022-10-31T01:42:46;11.60;;;6.40;;
38132;SDS011;23948;43.252;26.572;2022-10-31T01:45:11;12.70;;;6.20;;
38132;SDS011;23948;43.252;26.572;2022-10-31T01:47:41;10.63;;;6.78;;
38132;SDS011;23948;43.252;26.572;2022-10-31T01:50:11;13.23;;;6.65;;
38132;SDS011;23948;43.252;26.572;2022-10-31T01:52:41;12.80;;;6.70;;
38132;SDS011;23948;43.252;26.572;2022-10-31T01:55:13;14.65;;;5.88;;
38132;SDS011;23948;43.252;26.572;2022-10-31T01:57:44;10.57;;;6.72;;
38132;SDS011;23948;43.252;26.572;2022-10-31T02:00:15;17.73;;;6.95;;
38132;SDS011;23948;43.252;26.572;2022-10-31T02:02:41;13.52;;;7.00;;
38132;SDS011;23948;43.252;26.572;2022-10-31T02:05:11;13.32;;;7.15;;
38132;SDS011;23948;43.252;26.572;2022-10-31T02:10:33;11.27;;;6.63;;
38132;SDS011;23948;43.252;26.572;2022-10-31T02:13:01;11.98;;;6.53;;
38132;SDS011;23948;43.252;26.572;2022-10-31T02:15:29;12.15;;;6.70;;
38132;SDS011;23948;43.252;26.572;2022-10-31T02:17:55;10.98;;;6.40;;
38132;SDS011;23948;43.252;26.572;2022-10-31T02:20:22;9.40;;;5.60;;
38132;SDS011;23948;43.252;26.572;2022-10-31T02:23:02;10.23;;;5.90;;
38132;SDS011;23948;43.252;26.572;2022-10-31T02:31:40;11.32;;;5.63;;
38132;SDS011;23948;43.252;26.572;2022-10-31T02:34:20;9.88;;;5.35;;
38132;SDS011;23948;43.252;26.572;2022-10-31T02:36:56;11.25;;;4.55;;
38132;SDS011;23948;43.252;26.572;2022-10-31T02:39:26;7.50;;;4.57;;
38132;SDS011;23948;43.252;26.572;2022-10-31T02:42:09;10.82;;;5.03;;
38132;SDS011;23948;43.252;26.572;2022-10-31T02:44:45;13.00;;;5.15;;
38132;SDS011;23948;43.252;26.572;2022-10-31T02:47:23;7.55;;;4.40;;
38132;SDS011;23948;43.252;26.572;2022-10-31T02:52:33;9.20;;;4.68;;
38132;SDS011;23948;43.252;26.572;2022-10-31T02:58:13;9.73;;;4.25;;
38132;SDS011;23948;43.252;26.572;2022-10-31T03:03:25;9.35;;;4.47;;
38132;SDS011;23948;43.252;26.572;2022-10-31T03:06:09;8.18;;;4.40;;
38132;SDS011;23948;43.252;26.572;2022-10-31T03:08:50;7.93;;;3.88;;
38132;SDS011;23948;43.252;26.572;2022-10-31T03:11:26;8.23;;;3.95;;
38132;SDS011;23948;43.252;26.572;2022-10-31T03:14:01;7.85;;;4.20;;
38132;SDS011;23948;43.252;26.572;2022-10-31T03:16:40;9.80;;;4.05;;
38132;SDS011;23948;43.252;26.572;2022-10-31T03:21:50;10.60;;;4.15;;
38132;SDS011;23948;43.252;26.572;2022-10-31T03:24:22;10.73;;;5.82;;
38132;SDS011;23948;43.252;26.572;2022-10-31T03:26:54;19.92;;;9.00;;
38132;SDS011;23948;43.252;26.572;2022-10-31T03:29:23;13.88;;;7.18;;
38132;SDS011;23948;43.252;26.572;2022-10-31T03:34:38;14.13;;;7.22;;
38132;SDS011;23948;43.252;26.572;2022-10-31T03:37:07;13.32;;;6.55;;
38132;SDS011;23948;43.252;26.572;2022-10-31T03:39:36;11.75;;;6.47;;
38132;SDS011;23948;43.252;26.572;2022-10-31T03:42:38;11.73;;;6.03;;
38132;SDS011;23948;43.252;26.572;2022-10-31T03:45:17;13.05;;;6.45;;
38132;SDS011;23948;43.252;26.572;2022-10-31T03:47:49;12.60;;;6.32;;
38132;SDS011;23948;43.252;26.572;2022-10-31T03:50:16;17.38;;;6.90;;
38132;SDS011;23948;43.252;26.572;2022-10-31T03:55:17;19.40;;;7.57;;
38132;SDS011;23948;43.252;26.572;2022-10-31T04:00:11;23.55;;;7.22;;
38132;SDS011;23948;43.252;26.572;2022-10-31T04:02:40;27.13;;;7.80;;
38132;SDS011;23948;43.252;26.572;2022-10-31T04:05:10;24.38;;;8.65;;
38132;SDS011;23948;43.252;26.572;2022-10-31T04:07:41;21.73;;;7.28;;
38132;SDS011;23948;43.252;26.572;2022-10-31T04:10:11;19.58;;;6.85;;
38132;SDS011;23948;43.252;26.572;2022-10-31T04:12:40;16.98;;;6.82;;
38132;SDS011;23948;43.252;26.572;2022-10-31T04:15:08;14.95;;;7.43;;
38132;SDS011;23948;43.252;26.572;2022-10-31T04:17:39;15.32;;;8.82;;
38132;SDS011;23948;43.252;26.572;2022-10-31T04:20:09;16.38;;;9.15;;
38132;SDS011;23948;43.252;26.572;2022-10-31T04:22:34;16.02;;;9.18;;
38132;SDS011;23948;43.252;26.572;2022-10-31T04:25:00;33.58;;;19.45;;
38132;SDS011;23948;43.252;26.572;2022-10-31T04:27:25;32.13;;;22.40;;
38132;SDS011;23948;43.252;26.572;2022-10-31T04:29:51;21.25;;;13.57;;
38132;SDS011;23948;43.252;26.572;2022-10-31T04:32:16;16.13;;;7.72;;
38132;SDS011;23948;43.252;26.572;2022-10-31T04:34:42;13.60;;;6.70;;
38132;SDS011;23948;43.252;26.572;2022-10-31T04:37:07;13.75;;;7.78;;
38132;SDS011;23948;43.252;26.572;2022-10-31T04:39:33;12.85;;;8.07;;
38132;SDS011;23948;43.252;26.572;2022-10-31T04:41:58;17.35;;;8.27;;
38132;SDS011;23948;43.252;26.572;2022-10-31T04:44:24;21.65;;;7.53;;
38132;SDS011;23948;43.252;26.572;2022-10-31T04:46:49;17.00;;;7.10;;
38132;SDS011;23948;43.252;26.572;2022-10-31T04:49:15;16.42;;;7.18;;
38132;SDS011;23948;43.252;26.572;2022-10-31T04:51:40;15.02;;;6.88;;
38132;SDS011;23948;43.252;26.572;2022-10-31T04:54:05;16.63;;;7.30;;
38132;SDS011;23948;43.252;26.572;2022-10-31T04:56:31;14.93;;;6.45;;
38132;SDS011;23948;43.252;26.572;2022-10-31T04:58:57;17.25;;;6.75;;
38132;SDS011;23948;43.252;26.572;2022-10-31T05:01:22;17.33;;;7.28;;
38132;SDS011;23948;43.252;26.572;2022-10-31T05:03:48;21.60;;;7.53;;
38132;SDS011;23948;43.252;26.572;2022-10-31T05:06:13;20.60;;;7.03;;
38132;SDS011;23948;43.252;26.572;2022-10-31T05:08:38;23.52;;;7.32;;
38132;SDS011;23948;43.252;26.572;2022-10-31T05:11:04;21.35;;;7.18;;
38132;SDS011;23948;43.252;26.572;2022-10-31T05:13:30;27.70;;;7.38;;
38132;SDS011;23948;43.252;26.572;2022-10-31T05:15:56;36.00;;;8.00;;
38132;SDS011;23948;43.252;26.572;2022-10-31T05:18:21;26.65;;;7.82;;
38132;SDS011;23948;43.252;26.572;2022-10-31T05:20:47;33.72;;;8.70;;
38132;SDS011;23948;43.252;26.572;2022-10-31T05:23:12;19.42;;;6.95;;
38132;SDS011;23948;43.252;26.572;2022-10-31T05:25:39;30.13;;;8.02;;
38132;SDS011;23948;43.252;26.572;2022-10-31T05:28:05;21.65;;;7.03;;
38132;SDS011;23948;43.252;26.572;2022-10-31T05:30:30;22.95;;;7.95;;
38132;SDS011;23948;43.252;26.572;2022-10-31T05:32:57;20.98;;;7.85;;
38132;SDS011;23948;43.252;26.572;2022-10-31T05:35:26;24.70;;;9.15;;
38132;SDS011;23948;43.252;26.572;2022-10-31T05:37:54;22.90;;;8.75;;
38132;SDS011;23948;43.252;26.572;2022-10-31T05:40:20;22.38;;;8.77;;
38132;SDS011;23948;43.252;26.572;2022-10-31T05:42:46;22.45;;;9.77;;
38132;SDS011;23948;43.252;26.572;2022-10-31T05:45:16;18.10;;;9.02;;
38132;SDS011;23948;43.252;26.572;2022-10-31T05:47:53;23.08;;;11.00;;
38132;SDS011;23948;43.252;26.572;2022-10-31T05:50:20;24.92;;;12.00;;
38132;SDS011;23948;43.252;26.572;2022-10-31T05:52:46;26.45;;;12.82;;
38132;SDS011;23948;43.252;26.572;2022-10-31T05:55:12;33.85;;;13.75;;
38132;SDS011;23948;43.252;26.572;2022-10-31T05:57:37;29.20;;;13.82;;
38132;SDS011;23948;43.252;26.572;2022-10-31T06:00:03;27.42;;;14.18;;
38132;SDS011;23948;43.252;26.572;2022-10-31T06:02:30;36.33;;;16.33;;
38132;SDS011;23948;43.252;26.572;2022-10-31T06:04:59;34.17;;;13.05;;
38132;SDS011;23948;43.252;26.572;2022-10-31T06:07:26;30.42;;;14.43;;
38132;SDS011;23948;43.252;26.572;2022-10-31T06:09:51;28.63;;;12.20;;
38132;SDS011;23948;43.252;26.572;2022-10-31T06:12:17;19.05;;;8.10;;
38132;SDS011;23948;43.252;26.572;2022-10-31T06:14:42;19.05;;;8.73;;
38132;SDS011;23948;43.252;26.572;2022-10-31T06:17:07;19.13;;;8.30;;
38132;SDS011;23948;43.252;26.572;2022-10-31T06:19:33;18.08;;;8.25;;
38132;SDS011;23948;43.252;26.572;2022-10-31T06:21:58;18.52;;;8.80;;
38132;SDS011;23948;43.252;26.572;2022-10-31T06:24:24;16.25;;;8.70;;
38132;SDS011;23948;43.252;26.572;2022-10-31T06:26:49;17.80;;;8.88;;
38132;SDS011;23948;43.252;26.572;2022-10-31T06:29:15;16.63;;;7.95;;
38132;SDS011;23948;43.252;26.572;2022-10-31T06:31:40;16.13;;;7.53;;
38132;SDS011;23948;43.252;26.572;2022-10-31T06:34:06;14.90;;;7.78;;
38132;SDS011;23948;43.252;26.572;2022-10-31T06:36:31;17.13;;;8.25;;
38132;SDS011;23948;43.252;26.572;2022-10-31T06:38:56;20.58;;;9.38;;
38132;SDS011;23948;43.252;26.572;2022-10-31T06:41:22;15.63;;;8.93;;
38132;SDS011;23948;43.252;26.572;2022-10-31T06:43:48;17.40;;;8.40;;
38132;SDS011;23948;43.252;26.572;2022-10-31T06:46:13;14.95;;;8.00;;
38132;SDS011;23948;43.252;26.572;2022-10-31T06:48:42;14.10;;;7.90;;
38132;SDS011;23948;43.252;26.572;2022-10-31T06:51:07;24.55;;;7.95;;
38132;SDS011;23948;43.252;26.572;2022-10-31T06:53:33;14.73;;;7.22;;
38132;SDS011;23948;43.252;26.572;2022-10-31T06:55:59;21.85;;;8.20;;
38132;SDS011;23948;43.252;26.572;2022-10-31T06:58:24;17.92;;;8.73;;
38132;SDS011;23948;43.252;26.572;2022-10-31T07:00:50;19.38;;;13.40;;
38132;SDS011;23948;43.252;26.572;2022-10-31T07:03:15;18.17;;;10.18;;
38132;SDS011;23948;43.252;26.572;2022-10-31T07:05:41;24.52;;;7.20;;
38132;SDS011;23948;43.252;26.572;2022-10-31T07:08:08;24.58;;;7.70;;
38132;SDS011;23948;43.252;26.572;2022-10-31T07:10:36;19.90;;;8.00;;
38132;SDS011;23948;43.252;26.572;2022-10-31T07:13:03;20.15;;;7.40;;
38132;SDS011;23948;43.252;26.572;2022-10-31T07:15:34;19.95;;;7.10;;
38132;SDS011;23948;43.252;26.572;2022-10-31T07:18:03;17.55;;;8.80;;
38132;SDS011;23948;43.252;26.572;2022-10-31T07:20:30;22.25;;;9.13;;
38132;SDS011;23948;43.252;26.572;2022-10-31T07:22:56;15.75;;;7.38;;
38132;SDS011;23948;43.252;26.572;2022-10-31T07:25:22;15.60;;;8.25;;
38132;SDS011;23948;43.252;26.572;2022-10-31T07:27:47;21.02;;;8.93;;
38132;SDS011;23948;43.252;26.572;2022-10-31T07:30:14;13.80;;;7.55;;
38132;SDS011;23948;43.252;26.572;2022-10-31T07:32:40;14.45;;;6.95;;
38132;SDS011;23948;43.252;26.572;2022-10-31T07:35:07;13.32;;;6.60;;
38132;SDS011;23948;43.252;26.572;2022-10-31T07:37:33;16.02;;;6.80;;
38132;SDS011;23948;43.252;26.572;2022-10-31T07:39:59;18.95;;;7.00;;
38132;SDS011;23948;43.252;26.572;2022-10-31T07:42:24;11.10;;;6.53;;
38132;SDS011;23948;43.252;26.572;2022-10-31T07:44:50;15.23;;;6.65;;
38132;SDS011;23948;43.252;26.572;2022-10-31T07:47:15;10.30;;;6.22;;
38132;SDS011;23948;43.252;26.572;2022-10-31T07:49:41;16.27;;;6.97;;
38132;SDS011;23948;43.252;26.572;2022-10-31T07:52:06;11.40;;;6.60;;
38132;SDS011;23948;43.252;26.572;2022-10-31T07:54:31;19.15;;;7.45;;
38132;SDS011;23948;43.252;26.572;2022-10-31T07:56:57;14.20;;;6.93;;
38132;SDS011;23948;43.252;26.572;2022-10-31T07:59:22;15.98;;;7.53;;
38132;SDS011;23948;43.252;26.572;2022-10-31T08:01:48;15.85;;;7.18;;
38132;SDS011;23948;43.252;26.572;2022-10-31T08:04:13;11.20;;;6.45;;
38132;SDS011;23948;43.252;26.572;2022-10-31T08:06:39;13.27;;;7.40;;
38132;SDS011;23948;43.252;26.572;2022-10-31T08:09:04;18.75;;;7.50;;
38132;SDS011;23948;43.252;26.572;2022-10-31T08:11:29;17.30;;;7.45;;
38132;SDS011;23948;43.252;26.572;2022-10-31T08:13:55;17.60;;;7.40;;
38132;SDS011;23948;43.252;26.572;2022-10-31T08:16:20;16.33;;;6.53;;
38132;SDS011;23948;43.252;26.572;2022-10-31T08:18:46;15.95;;;6.63;;
38132;SDS011;23948;43.252;26.572;2022-10-31T08:21:12;13.15;;;6.65;;
38132;SDS011;23948;43.252;26.572;2022-10-31T08:23:37;10.50;;;5.75;;
38132;SDS011;23948;43.252;26.572;2022-10-31T08:26:03;16.38;;;6.60;;
38132;SDS011;23948;43.252;26.572;2022-10-31T08:28:31;12.70;;;6.40;;
38132;SDS011;23948;43.252;26.572;2022-10-31T08:30:57;13.45;;;6.03;;
38132;SDS011;23948;43.252;26.572;2022-10-31T08:33:22;12.85;;;6.30;;
38132;SDS011;23948;43.252;26.572;2022-10-31T08:35:48;12.68;;;6.20;;
38132;SDS011;23948;43.252;26.572;2022-10-31T08:38:14;15.43;;;6.55;;
38132;SDS011;23948;43.252;26.572;2022-10-31T08:40:40;15.85;;;6.68;;
38132;SDS011;23948;43.252;26.572;2022-10-31T08:43:15;13.70;;;5.95;;
38132;SDS011;23948;43.252;26.572;2022-10-31T08:45:42;15.55;;;6.63;;
38132;SDS011;23948;43.252;26.572;2022-10-31T08:48:10;14.68;;;7.30;;
38132;SDS011;23948;43.252;26.572;2022-10-31T08:50:37;17.40;;;7.13;;
38132;SDS011;23948;43.252;26.572;2022-10-31T08:53:13;20.52;;;7.47;;
38132;SDS011;23948;43.252;26.572;2022-10-31T08:55:43;17.77;;;7.38;;
38132;SDS011;23948;43.252;26.572;2022-10-31T08:58:10;16.35;;;7.10;;
38132;SDS011;23948;43.252;26.572;2022-10-31T09:00:41;14.25;;;6.50;;
38132;SDS011;23948;43.252;26.572;2022-10-31T09:03:09;18.33;;;6.40;;
38132;SDS011;23948;43.252;26.572;2022-10-31T09:08:03;17.20;;;6.10;;
38132;SDS011;23948;43.252;26.572;2022-10-31T09:10:30;14.20;;;6.05;;
38132;SDS011;23948;43.252;26.572;2022-10-31T09:15:23;14.73;;;6.78;;
38132;SDS011;23948;43.252;26.572;2022-10-31T09:17:49;11.35;;;5.78;;
38132;SDS011;23948;43.252;26.572;2022-10-31T09:20:14;11.32;;;6.28;;
38132;SDS011;23948;43.252;26.572;2022-10-31T09:22:40;16.50;;;6.60;;
38132;SDS011;23948;43.252;26.572;2022-10-31T09:25:06;12.70;;;6.70;;
38132;SDS011;23948;43.252;26.572;2022-10-31T09:27:32;16.27;;;6.05;;
38132;SDS011;23948;43.252;26.572;2022-10-31T09:29:57;12.98;;;5.93;;
38132;SDS011;23948;43.252;26.572;2022-10-31T09:32:22;12.18;;;5.93;;
38132;SDS011;23948;43.252;26.572;2022-10-31T09:34:48;13.68;;;5.78;;
38132;SDS011;23948;43.252;26.572;2022-10-31T09:37:13;9.93;;;5.45;;
38132;SDS011;23948;43.252;26.572;2022-10-31T09:39:39;14.57;;;6.07;;
38132;SDS011;23948;43.252;26.572;2022-10-31T09:44:56;12.15;;;6.03;;
38132;SDS011;23948;43.252;26.572;2022-10-31T09:50:53;13.77;;;6.93;;
38132;SDS011;23948;43.252;26.572;2022-10-31T09:53:29;11.25;;;6.00;;
38132;SDS011;23948;43.252;26.572;2022-10-31T09:55:59;12.75;;;6.22;;
38132;SDS011;23948;43.252;26.572;2022-10-31T09:58:27;14.90;;;6.35;;
38132;SDS011;23948;43.252;26.572;2022-10-31T10:00:56;12.77;;;6.80;;
38132;SDS011;23948;43.252;26.572;2022-10-31T10:08:29;13.73;;;6.07;;
38132;SDS011;23948;43.252;26.572;2022-10-31T10:19:57;10.52;;;6.00;;
38132;SDS011;23948;43.252;26.572;2022-10-31T10:30:22;14.57;;;5.53;;
38132;SDS011;23948;43.252;26.572;2022-10-31T10:32:58;10.32;;;4.60;;
38132;SDS011;23948;43.252;26.572;2022-10-31T10:35:34;8.13;;;4.82;;
38132;SDS011;23948;43.252;26.572;2022-10-31T10:40:38;10.05;;;4.63;;
38132;SDS011;23948;43.252;26.572;2022-10-31T10:43:18;11.45;;;5.32;;
38132;SDS011;23948;43.252;26.572;2022-10-31T10:45:59;9.00;;;5.07;;
38132;SDS011;23948;43.252;26.572;2022-10-31T10:59:32;9.95;;;4.75;;
38132;SDS011;23948;43.252;26.572;2022-10-31T11:01:57;13.15;;;4.80;;
38132;SDS011;23948;43.252;26.572;2022-10-31T11:04:27;11.98;;;4.93;;
38132;SDS011;23948;43.252;26.572;2022-10-31T11:06:59;10.95;;;4.82;;
38132;SDS011;23948;43.252;26.572;2022-10-31T11:09:25;8.90;;;5.28;;
38132;SDS011;23948;43.252;26.572;2022-10-31T11:11:51;11.93;;;5.22;;
38132;SDS011;23948;43.252;26.572;2022-10-31T11:14:16;13.32;;;7.80;;
38132;SDS011;23948;43.252;26.572;2022-10-31T11:16:44;15.73;;;5.35;;
38132;SDS011;23948;43.252;26.572;2022-10-31T11:21:45;12.50;;;4.63;;
38132;SDS011;23948;43.252;26.572;2022-10-31T11:24:19;10.38;;;5.10;;
38132;SDS011;23948;43.252;26.572;2022-10-31T11:26:46;10.43;;;4.95;;
38132;SDS011;23948;43.252;26.572;2022-10-31T11:31:39;11.27;;;4.63;;
38132;SDS011;23948;43.252;26.572;2022-10-31T11:34:06;10.35;;;4.85;;
38132;SDS011;23948;43.252;26.572;2022-10-31T11:36:42;7.78;;;4.00;;
38132;SDS011;23948;43.252;26.572;2022-10-31T11:39:14;6.82;;;4.18;;
38132;SDS011;23948;43.252;26.572;2022-10-31T11:41:43;8.15;;;4.13;;
38132;SDS011;23948;43.252;26.572;2022-10-31T11:44:14;8.30;;;4.15;;
38132;SDS011;23948;43.252;26.572;2022-10-31T11:49:25;9.98;;;3.72;;
38132;SDS011;23948;43.252;26.572;2022-10-31T11:52:14;8.75;;;4.00;;
38132;SDS011;23948;43.252;26.572;2022-10-31T11:54:45;7.57;;;3.78;;
38132;SDS011;23948;43.252;26.572;2022-10-31T11:57:22;8.23;;;3.80;;
38132;SDS011;23948;43.252;26.572;2022-10-31T11:59:53;9.05;;;4.03;;
38132;SDS011;23948;43.252;26.572;2022-10-31T12:02:21;10.38;;;4.15;;
38132;SDS011;23948;43.252;26.572;2022-10-31T12:04:50;10.50;;;4.15;;
38132;SDS011;23948;43.252;26.572;2022-10-31T12:07:22;10.30;;;4.30;;
38132;SDS011;23948;43.252;26.572;2022-10-31T12:09:49;11.85;;;4.47;;
38132;SDS011;23948;43.252;26.572;2022-10-31T12:12:22;10.95;;;4.53;;
38132;SDS011;23948;43.252;26.572;2022-10-31T12:17:49;7.97;;;4.53;;
38132;SDS011;23948;43.252;26.572;2022-10-31T12:31:45;11.73;;;4.78;;
38132;SDS011;23948;43.252;26.572;2022-10-31T12:34:40;12.25;;;6.43;;
38132;SDS011;23948;43.252;26.572;2022-10-31T12:37:49;12.93;;;5.07;;
38132;SDS011;23948;43.252;26.572;2022-10-31T12:41:00;7.97;;;4.13;;
38132;SDS011;23948;43.252;26.572;2022-10-31T12:43:48;11.30;;;4.63;;
38132;SDS011;23948;43.252;26.572;2022-10-31T12:46:29;9.13;;;4.50;;
38132;SDS011;23948;43.252;26.572;2022-10-31T12:49:12;11.23;;;4.80;;
38132;SDS011;23948;43.252;26.572;2022-10-31T12:59:38;7.25;;;4.00;;
38132;SDS011;23948;43.252;26.572;2022-10-31T13:04:57;11.60;;;4.40;;
38132;SDS011;23948;43.252;26.572;2022-10-31T13:10:50;11.13;;;4.55;;
38132;SDS011;23948;43.252;26.572;2022-10-31T13:19:18;10.77;;;4.40;;
38132;SDS011;23948;43.252;26.572;2022-10-31T13:22:39;12.55;;;4.75;;
38132;SDS011;23948;43.252;26.572;2022-10-31T13:25:02;14.02;;;4.47;;
38132;SDS011;23948;43.252;26.572;2022-10-31T13:30:22;8.70;;;4.22;;
38132;SDS011;23948;43.252;26.572;2022-10-31T13:46:38;12.70;;;5.35;;
38132;SDS011;23948;43.252;26.572;2022-10-31T13:57:06;12.10;;;4.90;;
38132;SDS011;23948;43.252;26.572;2022-10-31T14:00:00;9.82;;;4.18;;
38132;SDS011;23948;43.252;26.572;2022-10-31T14:02:35;8.93;;;4.57;;
38132;SDS011;23948;43.252;26.572;2022-10-31T14:05:18;16.52;;;4.65;;
38132;SDS011;23948;43.252;26.572;2022-10-31T14:07:48;10.60;;;4.53;;
38132;SDS011;23948;43.252;26.572;2022-10-31T14:10:21;13.18;;;4.35;;
38132;SDS011;23948;43.252;26.572;2022-10-31T14:12:53;11.07;;;4.20;;
38132;SDS011;23948;43.252;26.572;2022-10-31T14:15:30;14.02;;;3.80;;
38132;SDS011;23948;43.252;26.572;2022-10-31T14:18:01;8.90;;;4.43;;
38132;SDS011;23948;43.252;26.572;2022-10-31T14:20:41;10.10;;;4.38;;
38132;SDS011;23948;43.252;26.572;2022-10-31T14:23:50;9.73;;;3.95;;
38132;SDS011;23948;43.252;26.572;2022-10-31T14:28:55;7.97;;;4.65;;
38132;SDS011;23948;43.252;26.572;2022-10-31T14:31:42;13.00;;;4.45;;
38132;SDS011;23948;43.252;26.572;2022-10-31T14:34:33;11.38;;;4.90;;
38132;SDS011;23948;43.252;26.572;2022-10-31T14:43:13;8.85;;;3.97;;
38132;SDS011;23948;43.252;26.572;2022-10-31T14:45:54;12.50;;;4.40;;
38132;SDS011;23948;43.252;26.572;2022-10-31T14:51:14;9.75;;;4.80;;
38132;SDS011;23948;43.252;26.572;2022-10-31T14:53:48;9.98;;;4.55;;
38132;SDS011;23948;43.252;26.572;2022-10-31T14:56:34;12.73;;;4.93;;
38132;SDS011;23948;43.252;26.572;2022-10-31T14:59:03;12.27;;;5.22;;
38132;SDS011;23948;43.252;26.572;2022-10-31T15:01:34;15.13;;;5.78;;
38132;SDS011;23948;43.252;26.572;2022-10-31T15:04:11;15.73;;;5.97;;
38132;SDS011;23948;43.252;26.572;2022-10-31T15:06:42;16.38;;;7.53;;
38132;SDS011;23948;43.252;26.572;2022-10-31T15:11:46;17.05;;;8.20;;
38132;SDS011;23948;43.252;26.572;2022-10-31T15:14:25;16.63;;;8.50;;
38132;SDS011;23948;43.252;26.572;2022-10-31T15:16:53;15.57;;;8.98;;
38132;SDS011;23948;43.252;26.572;2022-10-31T15:19:24;17.67;;;8.88;;
38132;SDS011;23948;43.252;26.572;2022-10-31T15:21:52;17.98;;;8.15;;
38132;SDS011;23948;43.252;26.572;2022-10-31T15:24:19;17.70;;;9.98;;
38132;SDS011;23948;43.252;26.572;2022-10-31T15:26:49;26.67;;;11.93;;
38132;SDS011;23948;43.252;26.572;2022-10-31T15:29:17;27.85;;;13.55;;
38132;SDS011;23948;43.252;26.572;2022-10-31T15:31:50;32.55;;;13.95;;
38132;SDS011;23948;43.252;26.572;2022-10-31T15:34:29;35.60;;;14.57;;
38132;SDS011;23948;43.252;26.572;2022-10-31T15:37:00;43.13;;;14.98;;
38132;SDS011;23948;43.252;26.572;2022-10-31T15:39:25;42.67;;;19.40;;
38132;SDS011;23948;43.252;26.572;2022-10-31T15:41:52;34.30;;;16.05;;
38132;SDS011;23948;43.252;26.572;2022-10-31T15:44:28;38.53;;;16.75;;
38132;SDS011;23948;43.252;26.572;2022-10-31T15:46:56;35.00;;;16.65;;
38132;SDS011;23948;43.252;26.572;2022-10-31T15:49:27;42.13;;;16.25;;
38132;SDS011;23948;43.252;26.572;2022-10-31T15:51:56;51.60;;;17.50;;
38132;SDS011;23948;43.252;26.572;2022-10-31T15:54:24;41.30;;;18.10;;
38132;SDS011;23948;43.252;26.572;2022-10-31T15:56:51;46.03;;;18.85;;
38132;SDS011;23948;43.252;26.572;2022-10-31T15:59:19;49.83;;;22.58;;
38132;SDS011;23948;43.252;26.572;2022-10-31T16:02:24;47.17;;;19.85;;
38132;SDS011;23948;43.252;26.572;2022-10-31T16:07:22;45.20;;;20.50;;
38132;SDS011;23948;43.252;26.572;2022-10-31T16:09:49;55.70;;;19.92;;
38132;SDS011;23948;43.252;26.572;2022-10-31T16:12:24;49.42;;;19.88;;
38132;SDS011;23948;43.252;26.572;2022-10-31T16:14:57;48.97;;;19.85;;
38132;SDS011;23948;43.252;26.572;2022-10-31T16:17:25;44.50;;;21.33;;
38132;SDS011;23948;43.252;26.572;2022-10-31T16:22:22;47.38;;;20.48;;
38132;SDS011;23948;43.252;26.572;2022-10-31T16:25:09;50.42;;;19.48;;
38132;SDS011;23948;43.252;26.572;2022-10-31T16:27:46;46.15;;;20.90;;
38132;SDS011;23948;43.252;26.572;2022-10-31T16:30:35;47.22;;;22.13;;
38132;SDS011;23948;43.252;26.572;2022-10-31T16:33:05;37.63;;;18.02;;
38132;SDS011;23948;43.252;26.572;2022-10-31T16:35:46;39.35;;;18.85;;
38132;SDS011;23948;43.252;26.572;2022-10-31T16:38:12;36.42;;;16.58;;
38132;SDS011;23948;43.252;26.572;2022-10-31T16:40:38;42.38;;;17.52;;
38132;SDS011;23948;43.252;26.572;2022-10-31T16:43:04;35.78;;;16.90;;
38132;SDS011;23948;43.252;26.572;2022-10-31T16:45:34;43.90;;;16.93;;
38132;SDS011;23948;43.252;26.572;2022-10-31T16:48:04;38.15;;;16.45;;
38132;SDS011;23948;43.252;26.572;2022-10-31T16:50:31;33.65;;;15.75;;
38132;SDS011;23948;43.252;26.572;2022-10-31T16:52:56;37.70;;;15.93;;
38132;SDS011;23948;43.252;26.572;2022-10-31T16:55:22;34.65;;;17.40;;
38132;SDS011;23948;43.252;26.572;2022-10-31T16:57:54;37.28;;;16.42;;
38132;SDS011;23948;43.252;26.572;2022-10-31T17:00:25;35.40;;;17.40;;
38132;SDS011;23948;43.252;26.572;2022-10-31T17:02:54;37.28;;;16.60;;
38132;SDS011;23948;43.252;26.572;2022-10-31T17:05:24;37.10;;;16.70;;
38132;SDS011;23948;43.252;26.572;2022-10-31T17:07:58;37.75;;;14.65;;
38132;SDS011;23948;43.252;26.572;2022-10-31T17:10:24;29.92;;;13.40;;
38132;SDS011;23948;43.252;26.572;2022-10-31T17:12:53;26.38;;;12.25;;
38132;SDS011;23948;43.252;26.572;2022-10-31T17:15:28;31.02;;;13.30;;
38132;SDS011;23948;43.252;26.572;2022-10-31T17:18:01;27.55;;;12.85;;